Time;durP1;ratioP1;P1;durP2;ratioP2;P2;SDS_P1;SDS_P2;PMS_P1;PMS_P2;Temp;Humidity;BMP_temperature;BMP_pressure;BME280_temperature;BME280_humidity;BME280_pressure;Samples;Min_cycle;Max_cycle;Signal;HPM_P1;HPM_P2
2023/06/27 00:03:11;;;;;;;0.85;0.45;;;;;;;;;;20816996;28;20226;-71
2023/06/27 00:13:15;;;;;;;1.35;0.50;;;;;;;;;;20816781;28;20278;-70
2023/06/27 00:23:17;;;;;;;1.10;0.40;;;;;;;;;;20817817;28;20626;-71
2023/06/27 00:33:20;;;;;;;1.85;0.60;;;;;;;;;;20846104;28;20256;-71
2023/06/27 00:43:21;;;;;;;0.90;0.40;;;;;;;;;;20829289;28;20229;-72
2023/06/27 00:53:23;;;;;;;0.80;0.40;;;;;;;;;;20829649;28;20300;-71
2023/06/27 01:03:25;;;;;;;1.50;0.40;;;;;;;;;;20812565;28;20228;-72
2023/06/27 01:13:32;;;;;;;2.47;0.55;;;;;;;;;;20828800;28;20782;-71
2023/06/27 01:23:53;;;;;;;2.38;0.65;;;25.10;80.30;;;;;;20827826;28;20238;-71
2023/06/27 01:34:14;;;;;;;2.22;0.43;;;;;;;;;;20839697;28;20244;-71
2023/06/27 01:44:16;;;;;;;1.83;0.50;;;;;;;;;;20842276;28;20294;-70
2023/06/27 01:54:19;;;;;;;1.25;0.50;;;;;;;;;;20809839;28;20582;-71
2023/06/27 02:04:21;;;;;;;0.98;0.52;;;;;;;;;;20828120;28;20285;-71
2023/06/27 02:14:22;;;;;;;1.70;0.60;;;;;;;;;;20807223;28;20856;-70
2023/06/27 02:24:24;;;;;;;1.23;0.50;;;;;;;;;;20823081;28;20228;-72
2023/06/27 02:34:26;;;;;;;0.63;0.40;;;;;;;;;;20836102;28;20657;-72
2023/06/27 02:44:27;;;;;;;1.60;0.65;;;;;;;;;;20836771;28;20685;-72
2023/06/27 02:54:29;;;;;;;1.23;0.52;;;;;;;;;;20803534;28;20720;-72
2023/06/27 03:04:32;;;;;;;0.50;0.40;;;;;;;;;;20820542;28;20224;-72
2023/06/27 03:14:34;;;;;;;0.88;0.47;;;;;;;;;;20818520;28;20228;-72
2023/06/27 03:24:35;;;;;;;1.38;0.50;;;;;;;;;;20818617;28;20286;-71
2023/06/27 03:34:37;;;;;;;1.48;0.50;;;;;;;;;;20831903;28;20279;-72
2023/06/27 03:44:39;;;;;;;0.55;0.45;;;;;;;;;;20824383;28;20286;-72
2023/06/27 03:54:41;;;;;;;1.33;0.47;;;;;;;;;;20816198;28;20232;-71
2023/06/27 04:04:43;;;;;;;1.35;0.60;;;;;;;;;;20861740;28;20284;-71
2023/06/27 04:14:45;;;;;;;0.80;0.50;;;;;;;;;;20845582;28;20555;-72
2023/06/27 04:24:47;;;;;;;2.53;0.75;;;;;;;;;;20847150;28;20253;-72
2023/06/27 04:34:48;;;;;;;1.95;0.60;;;;;;;;;;20858381;28;20220;-72
2023/06/27 04:44:50;;;;;;;1.60;0.50;;;;;;;;;;20852013;28;20223;-72
2023/06/27 04:54:52;;;;;;;1.70;0.55;;;;;;;;;;20843498;28;20289;-72
2023/06/27 05:04:54;;;;;;;3.22;0.50;;;;;;;;;;20824809;28;20234;-72
2023/06/27 05:14:55;;;;;;;3.15;0.63;;;;;;;;;;20834970;28;20324;-72
2023/06/27 05:24:57;;;;;;;1.58;0.40;;;;;;;;;;20827587;28;20287;-72
2023/06/27 05:34:58;;;;;;;0.95;0.50;;;;;;;;;;20841906;28;20255;-72
2023/06/27 05:45:00;;;;;;;1.25;0.70;;;;;;;;;;20841691;28;20233;-72
2023/06/27 05:55:02;;;;;;;1.23;0.60;;;;;;;;;;20828154;28;20221;-72
2023/06/27 06:05:05;;;;;;;0.98;0.45;;;;;;;;;;20824993;28;20246;-72
2023/06/27 06:15:06;;;;;;;0.60;0.43;;;24.50;82.70;;;;;;20825010;28;20211;-72
2023/06/27 06:25:08;;;;;;;1.73;0.63;;;;;;;;;;20822931;28;20304;-72
2023/06/27 06:35:10;;;;;;;0.50;0.40;;;;;;;;;;20839256;28;20217;-73
2023/06/27 06:45:12;;;;;;;0.52;0.30;;;;;;;;;;20903526;28;20267;-72
2023/06/27 06:55:13;;;;;;;1.65;0.65;;;;;;;;;;20887239;28;20269;-73
2023/06/27 07:05:15;;;;;;;0.50;0.40;;;;;;;;;;20904560;28;20218;-72
2023/06/27 07:15:17;;;;;;;2.03;0.73;;;;;;;;;;20905186;28;20254;-73
2023/06/27 07:25:19;;;;;;;1.05;0.47;;;;;;;;;;20885065;28;20297;-73
2023/06/27 07:35:21;;;;;;;1.15;0.50;;;;;;;;;;20845487;28;20214;-72
2023/06/27 07:45:22;;;;;;;1.58;0.40;;;;;;;;;;20831232;28;20228;-73
2023/06/27 07:55:24;;;;;;;0.63;0.43;;;;;;;;;;20834074;23;20282;-77
2023/06/27 08:05:28;;;;;;;0.88;0.50;;;;;;;;;;20872900;28;20285;-75
2023/06/27 08:15:30;;;;;;;0.63;0.40;;;;;;;;;;20899991;28;20237;-75
2023/06/27 08:25:32;;;;;;;0.90;0.40;;;;;;;;;;20883511;28;20215;-76
2023/06/27 08:35:35;;;;;;;1.27;0.60;;;;;;;;;;20861254;28;20238;-75
2023/06/27 08:45:38;;;;;;;1.00;0.30;;;25.70;81.50;;;;;;20801777;28;20223;-75
2023/06/27 08:56:00;;;;;;;0.73;0.35;;;26.30;82.10;;;;;;20831976;28;20233;-77
2023/06/27 09:06:05;;;;;;;1.17;0.55;;;25.90;81.40;;;;;;20841998;28;20558;-75
2023/06/27 09:16:09;;;;;;;1.70;0.50;;;;;;;;;;20828673;28;20222;-75
2023/06/27 09:26:12;;;;;;;1.65;0.40;;;26.60;82.10;;;;;;20799758;28;20221;-75
2023/06/27 09:36:37;;;;;;;1.88;0.50;;;26.30;81.20;;;;;;20841258;28;20216;-75
2023/06/27 09:46:40;;;;;;;0.45;0.45;;;;;;;;;;20827104;28;20237;-75
2023/06/27 09:56:41;;;;;;;0.90;0.50;;;;;;;;;;20826648;28;20224;-75
2023/06/27 10:06:43;;;;;;;3.40;0.65;;;;;;;;;;20809931;28;20220;-75
2023/06/27 10:16:46;;;;;;;1.23;0.50;;;;;;;;;;20809797;28;20209;-75
2023/06/27 10:26:51;;;;;;;1.52;0.63;;;;;;;;;;20825641;28;20213;-75
2023/06/27 10:36:59;;;;;;;1.77;0.40;;;26.00;71.50;;;;;;20847198;28;20470;-75
2023/06/27 10:47:16;;;;;;;1.00;0.50;;;;;;;;;;20822088;28;20228;-76
2023/06/27 10:57:18;;;;;;;1.58;0.50;;;;;;;;;;20821985;28;20286;-76
2023/06/27 11:07:22;;;;;;;1.30;0.55;;;;;;;;;;20822042;28;20221;-77
2023/06/27 11:17:24;;;;;;;1.05;0.50;;;;;;;;;;20820146;28;20273;-75
2023/06/27 11:27:29;;;;;;;0.68;0.40;;;26.20;81.40;;;;;;20820264;28;20216;-76
2023/06/27 11:37:31;;;;;;;0.82;0.60;;;;;;;;;;20855546;28;20264;-74
2023/06/27 11:47:33;;;;;;;0.95;0.40;;;;;;;;;;20818802;28;20220;-77
2023/06/27 11:57:45;;;;;;;0.95;0.43;;;;;;;;;;20819072;28;20705;-77
2023/06/27 12:07:55;;;;;;;0.77;0.40;;;27.60;65.50;;;;;;20819492;28;20224;-79
2023/06/27 12:17:58;;;;;;;0.98;0.50;;;27.80;77.00;;;;;;20816730;28;20763;-78
2023/06/27 12:28:01;;;;;;;1.63;0.80;;;27.50;76.60;;;;;;20829795;28;20216;-75
2023/06/27 12:38:03;;;;;;;1.55;0.45;;;;;;;;;;20835772;28;20217;-75
2023/06/27 12:48:05;;;;;;;1.48;0.70;;;;;;;;;;20831901;28;20216;-74
2023/06/27 12:58:07;;;;;;;0.60;0.40;;;;;;;;;;20830557;28;20591;-74
2023/06/27 13:08:08;;;;;;;2.60;0.50;;;;;;;;;;20832056;28;20264;-77
2023/06/27 13:18:10;;;;;;;0.57;0.40;;;;;;;;;;20829877;28;20209;-77
2023/06/27 13:28:12;;;;;;;1.52;0.43;;;;;;;;;;20829839;28;20242;-76
2023/06/27 13:38:14;;;;;;;1.00;0.52;;;;;;;;;;20856761;28;20209;-78
2023/06/27 13:48:15;;;;;;;0.82;0.52;;;;;;;;;;20853721;23;20232;-72
2023/06/27 13:58:17;;;;;;;0.85;0.47;;;;;;;;;;20992536;28;20641;-73
2023/06/27 14:08:19;;;;;;;1.45;0.60;;;;;;;;;;20956805;28;20277;-72
2023/06/27 14:18:21;;;;;;;0.85;0.65;;;;;;;;;;20971841;28;20224;-73
2023/06/27 14:28:23;;;;;;;2.22;0.50;;;;;;;;;;20992974;28;20220;-73
2023/06/27 14:38:25;;;;;;;0.73;0.32;;;;;;;;;;20973151;28;20278;-73
2023/06/27 14:48:27;;;;;;;1.40;0.57;;;;;;;;;;20990296;28;20252;-73
2023/06/27 14:58:28;;;;;;;2.85;0.70;;;;;;;;;;20989817;28;20634;-73
2023/06/27 15:08:30;;;;;;;0.98;0.50;;;;;;;;;;20987046;28;20247;-73
2023/06/27 15:18:32;;;;;;;1.40;0.50;;;;;;;;;;20985744;28;20220;-73
2023/06/27 15:28:34;;;;;;;1.08;0.47;;;;;;;;;;20984141;28;20785;-73
2023/06/27 15:38:36;;;;;;;2.47;0.70;;;;;;;;;;20965797;28;20211;-73
2023/06/27 15:48:38;;;;;;;1.58;0.60;;;;;;;;;;20966404;28;20216;-73
2023/06/27 15:58:39;;;;;;;2.85;0.50;;;;;;;;;;20984031;28;20239;-73
2023/06/27 16:08:41;;;;;;;1.10;0.60;;;;;;;;;;20949827;28;20226;-72
2023/06/27 16:18:43;;;;;;;2.47;0.65;;;;;;;;;;20965924;28;20653;-71
2023/06/27 16:28:45;;;;;;;1.52;0.43;;;;;;;;;;20964884;28;20218;-71
2023/06/27 16:38:48;;;;;;;0.55;0.40;;;;;;;;;;20981589;28;20668;-71
2023/06/27 16:48:50;;;;;;;0.93;0.60;;;;;;;;;;20971002;28;20246;-72
2023/06/27 16:58:52;;;;;;;1.27;0.50;;;;;;;;;;20948523;28;20689;-71
2023/06/27 17:08:53;;;;;;;0.95;0.60;;;;;;;;;;20951472;28;20712;-72
2023/06/27 17:18:55;;;;;;;0.85;0.50;;;;;;;;;;20994598;28;20215;-72
2023/06/27 17:28:57;;;;;;;1.08;0.75;;;;;;;;;;20977415;28;20220;-72
2023/06/27 17:38:59;;;;;;;0.98;0.50;;;;;;;;;;21007241;28;20227;-72
2023/06/27 17:49:00;;;;;;;0.73;0.50;;;;;;;;;;20993273;28;20232;-72
2023/06/27 17:59:02;;;;;;;0.93;0.50;;;;;;;;;;20958152;28;20221;-72
2023/06/27 18:09:04;;;;;;;0.93;0.50;;;;;;;;;;20989722;28;20241;-72
2023/06/27 18:19:06;;;;;;;1.55;0.60;;;;;;;;;;20970254;28;20658;-73
2023/06/27 18:29:08;;;;;;;2.05;0.73;;;;;;;;;;20954920;28;20226;-73
2023/06/27 18:39:09;;;;;;;2.75;0.75;;;;;;;;;;20988022;28;20223;-73
2023/06/27 18:49:11;;;;;;;1.58;0.70;;;;;;;;;;20969764;28;20228;-73
2023/06/27 18:59:14;;;;;;;0.75;0.40;;;;;;;;;;20993900;28;20245;-73
2023/06/27 19:09:19;;;;;;;1.17;0.40;;;26.60;74.20;;;;;;20956007;28;20221;-73
2023/06/27 19:19:21;;;;;;;0.93;0.40;;;;;;;;;;20986122;28;20220;-72
2023/06/27 19:29:23;;;;;;;2.40;0.82;;;;;;;;;;20967484;28;20220;-72
2023/06/27 19:39:25;;;;;;;2.03;0.60;;;;;;;;;;20981165;28;20239;-72
2023/06/27 19:49:28;;;;;;;5.13;0.88;;;;;;;;;;20987096;22;20232;-75
2023/06/27 19:59:30;;;;;;;1.00;0.50;;;;;;;;;;20901896;28;20217;-75
2023/06/27 20:09:32;;;;;;;2.45;0.70;;;;;;;;;;20866556;28;20666;-75
2023/06/27 20:19:33;;;;;;;0.75;0.50;;;;;;;;;;20900498;28;20208;-75
2023/06/27 20:29:35;;;;;;;1.33;0.50;;;;;;;;;;20882656;28;20248;-75
2023/06/27 20:39:37;;;;;;;1.92;0.60;;;;;;;;;;20881643;28;20586;-75
2023/06/27 20:49:38;;;;;;;2.10;0.50;;;;;;;;;;20914950;28;20229;-75
2023/06/27 20:59:40;;;;;;;1.60;0.52;;;;;;;;;;20898728;28;20294;-77
2023/06/27 21:09:42;;;;;;;0.90;0.52;;;;;;;;;;20905384;28;20595;-76
2023/06/27 21:19:43;;;;;;;1.00;0.60;;;;;;;;;;20920906;28;20289;-76
2023/06/27 21:29:45;;;;;;;0.60;0.40;;;;;;;;;;20914136;28;20224;-75
2023/06/27 21:39:47;;;;;;;1.08;0.60;;;;;;;;;;20910850;28;20220;-75
2023/06/27 21:49:49;;;;;;;2.00;0.80;;;;;;;;;;20911185;28;20212;-77
2023/06/27 21:59:50;;;;;;;0.73;0.55;;;;;;;;;;20909192;28;20298;-75
2023/06/27 22:09:52;;;;;;;1.42;0.63;;;;;;;;;;20891993;28;20269;-75
2023/06/27 22:19:54;;;;;;;1.52;0.60;;;;;;;;;;20908244;28;20595;-75
2023/06/27 22:29:55;;;;;;;1.83;0.60;;;;;;;;;;20867290;28;20274;-75
2023/06/27 22:39:57;;;;;;;1.13;0.50;;;;;;;;;;20894873;28;20225;-76
2023/06/27 22:49:59;;;;;;;1.38;0.57;;;;;;;;;;20893369;28;20742;-77
2023/06/27 23:00:01;;;;;;;1.48;0.68;;;;;;;;;;20907108;28;20250;-75
2023/06/27 23:10:02;;;;;;;2.05;0.60;;;;;;;;;;20870170;28;20232;-75
2023/06/27 23:20:07;;;;;;;0.93;0.40;;;;;;;;;;20886234;28;20682;-75
2023/06/27 23:30:08;;;;;;;1.35;0.52;;;;;;;;;;20886397;28;20570;-75
2023/06/27 23:40:10;;;;;;;0.93;0.40;;;;;;;;;;20883535;28;20215;-74
2023/06/27 23:50:12;;;;;;;1.67;0.52;;;;;;;;;;20884395;28;20285;-75
